Terminal Aerodrome Forecast
Issued by NWS Wilmington, OH

Current Version | Previous Version | Graphics & Text | Print | Product List | Glossary On
Versions: 1 2 3 4 5 6 7 8 9 10 11 12 13 14 15 16 17 18 19 20 21 22 23 24 25
000
FTUS41 KILN 262057 AAB
TAFILN
TAF AMD
KILN 262057Z 2621/2718 VRB04KT P6SM VCSH BKN040
     FM270000 07003KT P6SM SCT250
     FM270900 07003KT 3SM BR SCT250
     FM271400 14005KT P6SM SCT040=

USA.gov is the U.S. government's official web portal to all federal, state and local government web resources and services.